Terminal Aerodrome Forecast
Issued by NWS Bismarck, ND

Home | Current Version | Previous Version | Text Only | Print | Product List | Glossary On
Versions: 1 2 3 4 5 6 7 8 9 10 11 12 13 14 15 16 17 18 19
000
FTUS43 KBIS 200524
TAFISN
TAF
KISN 200524Z 2006/2106 VRB05KT P6SM SCT100 BKN150
     FM201700 31008KT P6SM SCT150
     FM202000 32015G22KT P6SM SCT200
     FM202300 35012KT P6SM SCT250=

USA.gov is the U.S. government's official web portal to all federal, state and local government web resources and services.